Time;durP1;ratioP1;P1;durP2;ratioP2;P2;SDS_P1;SDS_P2;PMS_P1;PMS_P2;Temp;Humidity;BMP_temperature;BMP_pressure;BME280_temperature;BME280_humidity;BME280_pressure;Samples;Min_cycle;Max_cycle;Signal;HPM_P1;HPM_P2
2022/03/04 00:00:54;;;;;;;103.10;57.15;;;;;;;-1.29;72.63;96526.72;1761184;80;21013;-84
2022/03/04 00:03:19;;;;;;;91.82;52.62;;;;;;;-1.30;72.65;96527.64;1764606;80;20977;-83
2022/03/04 00:05:46;;;;;;;94.32;51.88;;;;;;;-1.28;72.95;96530.91;1714203;82;21126;-84
2022/03/04 00:08:12;;;;;;;112.22;63.05;;;;;;;-1.31;73.21;96531.08;1694557;83;21126;-84
2022/03/04 00:10:38;;;;;;;107.95;59.03;;;;;;;-1.32;73.42;96534.55;1750962;81;21024;-84
2022/03/04 00:13:03;;;;;;;97.02;55.25;;;;;;;-1.36;73.60;96531.05;1755732;80;21008;-84
2022/03/04 00:15:29;;;;;;;107.85;63.50;;;;;;;-1.33;73.95;96532.11;1748620;80;21041;-84
2022/03/04 00:17:55;;;;;;;100.33;57.33;;;;;;;-1.34;73.90;96531.30;1749225;80;21046;-84
2022/03/04 00:20:21;;;;;;;110.60;65.25;;;;;;;-1.36;74.20;96529.32;1740731;81;21356;-84
2022/03/04 00:22:46;;;;;;;107.30;64.10;;;;;;;-1.40;74.28;96531.73;1752434;81;20997;-84
2022/03/04 00:25:12;;;;;;;113.40;64.65;;;;;;;-1.36;74.36;96529.78;1755755;80;20997;-84
2022/03/04 00:27:38;;;;;;;105.70;60.83;;;;;;;-1.34;74.36;96533.03;1751902;81;21043;-84
2022/03/04 00:30:06;;;;;;;110.92;60.67;;;;;;;-1.31;74.51;96534.91;1747338;80;21076;-84
2022/03/04 00:32:31;;;;;;;112.92;60.98;;;;;;;-1.34;74.42;96533.03;1750938;80;20981;-84
2022/03/04 00:34:57;;;;;;;114.35;63.33;;;;;;;-1.37;74.57;96534.52;1753983;80;21108;-84
2022/03/04 00:37:23;;;;;;;103.53;60.60;;;;;;;-1.39;74.61;96530.81;1709891;81;21071;-84
2022/03/04 00:39:49;;;;;;;80.28;43.58;;;;;;;-1.39;74.90;96534.63;1756818;80;21375;-83
2022/03/04 00:42:15;;;;;;;103.50;57.98;;;;;;;-1.43;75.03;96527.31;1746939;81;20958;-84
2022/03/04 00:44:41;;;;;;;96.45;56.30;;;;;;;-1.47;74.94;96522.86;1753937;80;21496;-84
2022/03/04 00:47:06;;;;;;;98.15;56.10;;;;;;;-1.48;75.34;96522.50;1752998;80;20935;-84
2022/03/04 00:49:33;;;;;;;106.40;59.53;;;;;;;-1.51;75.12;96525.27;1751240;81;20974;-84
2022/03/04 00:51:59;;;;;;;96.67;54.95;;;;;;;-1.54;75.40;96522.92;1754123;80;20981;-84
2022/03/04 00:54:24;;;;;;;98.42;53.13;;;;;;;-1.56;75.44;96522.22;1752661;81;20979;-83
2022/03/04 00:56:50;;;;;;;105.43;59.27;;;;;;;-1.57;75.86;96518.05;1754448;80;21285;-84
2022/03/04 00:59:16;;;;;;;104.00;59.13;;;;;;;-1.58;75.53;96517.69;1754464;80;21060;-84
2022/03/04 01:01:41;;;;;;;104.07;59.15;;;;;;;-1.56;75.95;96516.66;1750538;80;21025;-84
2022/03/04 01:04:09;;;;;;;106.25;58.65;;;;;;;-1.51;75.72;96517.62;1754166;80;21026;-84
2022/03/04 01:06:35;;;;;;;104.23;57.15;;;;;;;-1.46;75.81;96518.14;1751012;80;21392;-84
2022/03/04 01:09:01;;;;;;;103.87;58.48;;;;;;;-1.43;75.79;96522.20;1751583;81;20998;-84
2022/03/04 01:11:27;;;;;;;105.10;58.38;;;;;;;-1.45;75.61;96517.22;1758035;80;21005;-84
2022/03/04 01:13:52;;;;;;;86.92;48.70;;;;;;;-1.45;75.63;96508.76;1750525;80;21065;-84
2022/03/04 01:16:18;;;;;;;108.87;60.43;;;;;;;-1.41;75.76;96515.27;1750613;80;21098;-85
2022/03/04 01:18:44;;;;;;;106.05;59.35;;;;;;;-1.40;75.65;96516.90;1748826;80;21450;-84
2022/03/04 01:21:09;;;;;;;105.55;62.08;;;;;;;-1.32;75.77;96514.16;1747905;80;21041;-84
2022/03/04 01:23:35;;;;;;;103.30;58.40;;;;;;;-1.24;75.62;96509.83;1756952;80;21027;-84
2022/03/04 01:26:02;;;;;;;89.22;51.18;;;;;;;-1.23;75.53;96512.27;1753743;80;21061;-84
2022/03/04 01:28:27;;;;;;;110.85;58.98;;;;;;;-1.27;75.57;96510.86;1750083;81;20954;-84
2022/03/04 01:30:53;;;;;;;88.03;50.55;;;;;;;-1.34;75.48;96508.82;1750834;81;21029;-83
2022/03/04 01:33:19;;;;;;;115.80;59.58;;;;;;;-1.40;75.77;96510.52;1750143;81;21928;-84
2022/03/04 01:35:45;;;;;;;107.22;60.45;;;;;;;-1.41;75.66;96512.26;1751939;80;20951;-84
2022/03/04 01:38:11;;;;;;;92.72;51.68;;;;;;;-1.40;75.66;96509.25;1751519;80;20993;-84
2022/03/04 01:40:37;;;;;;;107.35;61.63;;;;;;;-1.41;76.05;96511.45;1750185;81;21084;-84
2022/03/04 01:43:03;;;;;;;112.60;59.30;;;;;;;-1.42;75.83;96518.28;1752001;81;21360;-84
2022/03/04 01:45:29;;;;;;;108.22;60.95;;;;;;;-1.42;75.84;96513.19;1743902;81;21010;-84
2022/03/04 01:47:54;;;;;;;113.00;60.78;;;;;;;-1.41;75.88;96514.81;1753238;81;20997;-84
2022/03/04 01:50:20;;;;;;;98.27;52.23;;;;;;;-1.40;75.97;96511.34;1747421;81;21012;-84
2022/03/04 01:52:46;;;;;;;88.70;52.60;;;;;;;-1.41;75.98;96508.89;1749648;81;21399;-84
2022/03/04 01:55:11;;;;;;;109.30;59.15;;;;;;;-1.43;76.03;96514.10;1752358;81;21021;-84
2022/03/04 01:57:37;;;;;;;105.58;60.88;;;;;;;-1.47;75.89;96513.94;1743328;81;20962;-84
2022/03/04 02:00:06;;;;;;;103.10;58.15;;;;;;;-1.43;76.01;96512.83;1744659;81;20977;-83
2022/03/04 02:02:32;;;;;;;105.60;57.73;;;;;;;-1.33;76.11;96515.55;1751993;81;20988;-84
2022/03/04 02:04:57;;;;;;;85.55;45.48;;;;;;;-1.32;75.92;96509.52;1745963;81;20993;-83
2022/03/04 02:07:23;;;;;;;98.25;56.53;;;;;;;-1.35;75.71;96519.48;1748277;81;21025;-84
2022/03/04 02:09:49;;;;;;;95.05;54.53;;;;;;;-1.43;75.60;96517.11;1749867;81;21301;-84
2022/03/04 02:12:15;;;;;;;85.03;49.67;;;;;;;-1.43;75.49;96515.84;1741707;81;20977;-84
2022/03/04 02:14:40;;;;;;;87.80;50.08;;;;;;;-1.42;75.57;96515.73;1757329;81;20970;-84
2022/03/04 02:17:07;;;;;;;89.85;47.88;;;;;;;-1.45;75.41;96509.58;1753961;81;20966;-84
2022/03/04 02:19:33;;;;;;;86.47;49.03;;;;;;;-1.49;75.20;96516.23;1755759;81;21705;-84
2022/03/04 02:22:00;;;;;;;82.97;47.15;;;;;;;-1.45;75.15;96520.23;1743953;81;20998;-84
2022/03/04 02:24:28;;;;;;;78.95;45.70;;;;;;;-1.39;75.02;96517.25;1750084;81;22191;-84
2022/03/04 02:26:56;;;;;;;68.62;38.30;;;;;;;-1.43;74.63;96517.92;1748643;81;21014;-84
2022/03/04 02:29:21;;;;;;;63.75;38.08;;;;;;;-1.37;74.52;96520.50;1756596;81;20993;-84
2022/03/04 02:31:48;;;;;;;48.20;28.57;;;;;;;-1.43;74.23;96523.02;1744915;81;20978;-84
2022/03/04 02:34:14;;;;;;;67.72;39.75;;;;;;;-1.44;73.77;96521.86;1751427;81;20942;-84
2022/03/04 02:36:40;;;;;;;72.47;40.95;;;;;;;-1.44;73.76;96511.20;1745869;81;21025;-85
2022/03/04 02:39:06;;;;;;;63.38;37.60;;;;;;;-1.37;73.77;96506.03;1757215;81;21009;-84
2022/03/04 02:41:37;;;;;;;70.57;39.48;;;;;;;-1.31;73.61;96503.05;1751048;81;21037;-84
2022/03/04 02:44:02;;;;;;;66.22;39.98;;;;;;;-1.22;73.62;96497.78;1754320;81;21030;-84
2022/03/04 02:46:28;;;;;;;63.95;38.05;;;;;;;-1.16;73.44;96495.26;1749311;80;21045;-84
2022/03/04 02:48:53;;;;;;;65.57;38.50;;;;;;;-1.10;73.19;96493.58;1750213;81;20981;-84
2022/03/04 02:51:19;;;;;;;67.67;39.92;;;;;;;-1.07;72.91;96493.36;1752610;80;22020;-84
2022/03/04 02:53:46;;;;;;;67.37;37.40;;;;;;;-1.06;72.74;96486.05;1753548;80;21068;-84
2022/03/04 02:56:12;;;;;;;64.03;37.60;;;;;;;-1.04;72.72;96485.02;1747631;80;21085;-84
2022/03/04 02:58:38;;;;;;;64.03;37.15;;;;;;;-1.02;72.57;96492.56;1744935;81;21416;-84
2022/03/04 03:01:04;;;;;;;64.45;39.13;;;;;;;-0.99;72.61;96489.79;1721423;81;21098;-85
2022/03/04 03:03:29;;;;;;;65.65;38.50;;;;;;;-0.94;72.56;96495.41;1746563;81;21061;-84
2022/03/04 03:05:55;;;;;;;62.27;35.38;;;;;;;-0.90;72.48;96496.81;1752977;80;20982;-84
2022/03/04 03:08:21;;;;;;;69.35;37.25;;;;;;;-0.88;72.21;96501.80;1753794;80;21411;-84
2022/03/04 03:10:47;;;;;;;67.62;37.60;;;;;;;-0.88;72.19;96500.06;1754035;80;21045;-84
2022/03/04 03:13:12;;;;;;;69.25;37.90;;;;;;;-0.88;72.05;96510.73;1751133;80;20985;-84
2022/03/04 03:15:38;;;;;;;64.27;37.42;;;;;;;-0.99;72.03;96509.73;1748591;80;21005;-84
2022/03/04 03:18:04;;;;;;;66.55;38.53;;;;;;;-1.00;72.22;96511.12;1751177;80;21314;-84
2022/03/04 03:20:29;;;;;;;68.17;38.13;;;;;;;-0.96;72.39;96521.48;1748146;81;21013;-84
2022/03/04 03:22:55;;;;;;;70.62;40.43;;;;;;;-0.91;72.07;96520.69;1748141;80;21384;-84
2022/03/04 03:25:21;;;;;;;68.47;40.00;;;;;;;-0.89;71.98;96525.22;1750593;80;20965;-84
2022/03/04 03:27:47;;;;;;;61.28;34.45;;;;;;;-0.88;71.90;96534.96;1750619;80;21010;-84
2022/03/04 03:30:13;;;;;;;65.22;40.98;;;;;;;-0.95;71.77;96531.58;1752632;80;20971;-87
2022/03/04 03:32:39;;;;;;;64.65;40.12;;;;;;;-1.06;71.67;96539.15;1752812;80;20994;-84
2022/03/04 03:35:07;;;;;;;72.55;40.10;;;;;;;-1.13;71.74;96540.51;1750229;80;21340;-84
2022/03/04 03:37:34;;;;;;;72.97;41.98;;;;;;;-1.22;71.77;96543.22;1719705;81;21062;-84
2022/03/04 03:40:01;;;;;;;69.15;41.75;;;;;;;-1.26;71.89;96540.53;1749540;80;21054;-84
2022/03/04 03:42:27;;;;;;;68.20;40.95;;;;;;;-1.23;72.09;96540.77;1751478;81;21412;-84
2022/03/04 03:44:54;;;;;;;72.42;39.60;;;;;;;-1.22;72.12;96538.11;1748166;80;21030;-84
2022/03/04 03:47:20;;;;;;;68.70;40.33;;;;;;;-1.17;72.19;96540.80;1745999;81;21033;-84
2022/03/04 03:49:46;;;;;;;68.07;40.73;;;;;;;-1.12;72.15;96549.78;1755203;81;21349;-84
2022/03/04 03:52:12;;;;;;;73.72;41.10;;;;;;;-1.08;72.08;96543.55;1752509;81;20986;-84
2022/03/04 03:54:37;;;;;;;72.27;38.38;;;;;;;-1.06;72.04;96548.08;1754850;80;21015;-84
2022/03/04 03:57:03;;;;;;;70.87;41.18;;;;;;;-1.11;71.90;96546.31;1749650;81;20984;-84
2022/03/04 03:59:29;;;;;;;69.25;39.75;;;;;;;-1.36;71.88;96519.58;1750307;81;21411;-84
2022/03/04 04:01:55;;;;;;;66.47;40.12;;;;;;;-1.11;72.11;96553.15;1750369;81;21021;-84
2022/03/04 04:04:21;;;;;;;73.85;41.75;;;;;;;-1.17;72.07;96547.17;1748413;81;20977;-84
2022/03/04 04:06:46;;;;;;;72.32;42.23;;;;;;;-1.17;72.07;96547.17;1755145;81;20990;-84
2022/03/04 04:09:12;;;;;;;69.95;40.65;;;;;;;-1.11;72.17;96556.52;1755092;81;21001;-84
2022/03/04 04:11:39;;;;;;;59.45;33.28;;;;;;;-1.04;72.17;96558.17;1753184;81;21018;-84
2022/03/04 04:14:06;;;;;;;63.20;39.18;;;;;;;-1.10;71.69;96556.86;1753349;81;21046;-84
2022/03/04 04:16:32;;;;;;;69.50;39.33;;;;;;;-1.18;71.79;96557.02;1740390;81;20993;-84
2022/03/04 04:18:58;;;;;;;63.40;38.73;;;;;;;-1.24;71.75;96562.91;1745186;81;21002;-84
2022/03/04 04:21:26;;;;;;;65.97;36.35;;;;;;;-1.27;71.99;96558.02;1750674;81;21393;-84
2022/03/04 04:23:53;;;;;;;52.05;29.72;;;;;;;-1.21;72.25;96565.23;1752502;81;21047;-84
2022/03/04 04:26:21;;;;;;;65.17;38.53;;;;;;;-1.19;71.85;96566.87;1751696;81;21387;-84
2022/03/04 04:28:47;;;;;;;62.93;36.75;;;;;;;-1.22;71.90;96562.34;1755402;81;21005;-84
2022/03/04 04:31:13;;;;;;;64.62;36.83;;;;;;;-1.19;71.90;96566.41;1755937;81;21340;-84
2022/03/04 04:33:40;;;;;;;67.47;39.67;;;;;;;-1.19;71.97;96569.42;1752186;81;21068;-84
2022/03/04 04:36:06;;;;;;;68.65;38.75;;;;;;;-1.22;71.86;96567.89;1749986;81;21033;-84
2022/03/04 04:38:32;;;;;;;59.53;36.10;;;;;;;-1.19;71.96;96565.59;1750040;81;20962;-84
2022/03/04 04:40:59;;;;;;;68.75;38.15;;;;;;;-1.18;71.80;96561.66;1748442;81;21122;-84
2022/03/04 04:43:25;;;;;;;67.17;37.45;;;;;;;-1.26;71.71;96566.02;1750999;81;20989;-84
2022/03/04 04:45:51;;;;;;;67.53;39.78;;;;;;;-1.29;71.81;96568.78;1748931;81;21022;-84
2022/03/04 04:48:17;;;;;;;64.75;36.68;;;;;;;-1.35;71.88;96569.64;1751244;80;21017;-84
2022/03/04 04:50:43;;;;;;;71.45;40.12;;;;;;;-1.41;72.20;96563.70;1751636;80;21373;-84
2022/03/04 04:53:09;;;;;;;67.72;38.60;;;;;;;-1.39;72.45;96567.77;1755658;80;21002;-84
2022/03/04 04:55:34;;;;;;;63.48;38.13;;;;;;;-1.36;72.49;96568.02;1752257;80;21085;-84
2022/03/04 04:58:00;;;;;;;64.85;36.03;;;;;;;-1.34;72.44;96565.72;1746661;81;21057;-84
2022/03/04 05:00:26;;;;;;;61.13;38.75;;;;;;;-1.33;72.41;96569.89;1720042;83;21395;-84
2022/03/04 05:02:52;;;;;;;61.13;36.42;;;;;;;-1.30;72.49;96572.26;1700948;83;21082;-84
2022/03/04 05:05:19;;;;;;;60.45;34.70;;;;;;;-1.34;72.17;96572.09;1763206;80;21047;-84
2022/03/04 05:07:46;;;;;;;58.25;33.98;;;;;;;-1.36;72.25;96567.55;1768808;80;20941;-84
2022/03/04 05:10:12;;;;;;;52.58;31.70;;;;;;;-1.33;72.37;96572.44;1761131;80;20957;-84
2022/03/04 05:12:39;;;;;;;58.52;34.43;;;;;;;-1.25;72.57;96570.66;1762203;80;21067;-84
2022/03/04 05:15:08;;;;;;;52.60;31.33;;;;;;;-1.23;72.37;96578.55;1760132;80;20964;-84
2022/03/04 05:17:33;;;;;;;60.75;33.65;;;;;;;-1.28;72.25;96569.14;1761245;80;20969;-84
2022/03/04 05:19:59;;;;;;;56.55;32.42;;;;;;;-1.29;72.36;96578.17;1765222;80;20983;-84
2022/03/04 05:22:25;;;;;;;56.30;33.13;;;;;;;-1.26;72.44;96581.78;1760584;80;21024;-84
2022/03/04 05:24:51;;;;;;;55.55;34.43;;;;;;;-1.19;72.49;96580.89;1765798;80;21000;-84
2022/03/04 05:27:17;;;;;;;58.78;33.63;;;;;;;-1.16;72.39;96584.04;1766581;80;22056;-84
2022/03/04 05:29:42;;;;;;;55.78;33.35;;;;;;;-1.13;72.53;96588.14;1763526;80;21042;-84
2022/03/04 05:32:08;;;;;;;56.48;32.65;;;;;;;-1.09;72.48;96585.73;1758986;80;21026;-84
2022/03/04 05:34:35;;;;;;;53.87;33.48;;;;;;;-1.05;72.39;96587.14;1759986;80;21029;-84
2022/03/04 05:37:00;;;;;;;54.77;32.85;;;;;;;-1.02;72.52;96583.91;1767683;80;20980;-84
2022/03/04 05:39:26;;;;;;;57.38;33.75;;;;;;;-0.96;72.51;96587.80;1762396;80;21015;-84
2022/03/04 05:41:53;;;;;;;57.03;34.70;;;;;;;-0.94;72.43;96582.94;1760934;80;21044;-84
2022/03/04 05:44:19;;;;;;;50.17;32.45;;;;;;;-0.88;72.38;96588.07;1759775;80;21506;-84
2022/03/04 05:46:45;;;;;;;55.98;34.15;;;;;;;-0.88;72.14;96588.07;1685112;82;21019;-84
2022/03/04 05:49:11;;;;;;;57.23;33.75;;;;;;;-0.86;71.95;96590.52;1704706;82;21033;-84
2022/03/04 05:51:37;;;;;;;55.15;31.65;;;;;;;-0.85;72.11;96594.69;1755324;80;20998;-85
2022/03/04 05:54:03;;;;;;;55.05;33.13;;;;;;;-0.87;72.15;96594.80;1754587;81;20927;-84
2022/03/04 05:56:28;;;;;;;59.58;34.43;;;;;;;-0.86;72.16;96593.87;1755505;81;21399;-84
2022/03/04 05:58:54;;;;;;;55.23;33.75;;;;;;;-0.85;72.29;96594.23;1754110;81;21419;-84
2022/03/04 06:01:20;;;;;;;50.95;31.07;;;;;;;-0.84;72.27;96598.41;1753619;80;21440;-84
2022/03/04 06:03:46;;;;;;;56.60;32.98;;;;;;;-0.85;72.18;96597.24;1760130;80;21062;-84
2022/03/04 06:06:12;;;;;;;53.08;32.20;;;;;;;-0.82;72.41;96603.41;1758367;80;21124;-84
2022/03/04 06:08:38;;;;;;;53.78;33.67;;;;;;;-0.92;72.16;96605.79;1754173;81;21041;-84
2022/03/04 06:11:04;;;;;;;53.17;33.28;;;;;;;-0.99;72.34;96604.11;1755733;81;20946;-84
2022/03/04 06:13:29;;;;;;;57.38;34.53;;;;;;;-0.98;72.71;96607.04;1714248;83;21030;-84
2022/03/04 06:15:55;;;;;;;58.38;33.40;;;;;;;-0.94;72.92;96609.72;1761430;80;21085;-84
2022/03/04 06:18:21;;;;;;;53.85;34.45;;;;;;;-0.94;73.11;96615.29;1751355;81;21057;-83
2022/03/04 06:20:47;;;;;;;58.48;36.25;;;;;;;-0.97;72.93;96617.59;1753043;81;21061;-84
2022/03/04 06:23:13;;;;;;;53.95;33.92;;;;;;;-0.94;73.16;96622.94;1760704;80;21054;-84
2022/03/04 06:25:39;;;;;;;54.25;33.10;;;;;;;-0.92;73.22;96621.09;1754875;80;21063;-84
2022/03/04 06:28:05;;;;;;;56.55;34.33;;;;;;;-0.92;73.16;96626.20;1758183;80;21093;-84
2022/03/04 06:30:34;;;;;;;55.67;34.03;;;;;;;-0.93;73.19;96633.50;1754130;80;21022;-84
2022/03/04 06:35:44;;;;;;;56.25;35.30;;;;;;;-0.95;73.72;96631.52;1753630;80;21041;-84
2022/03/04 06:38:10;;;;;;;57.60;35.68;;;;;;;-0.95;73.92;96636.16;1758998;80;20981;-84
2022/03/04 06:40:36;;;;;;;54.40;32.88;;;;;;;-0.99;73.96;96627.05;1755452;80;20978;-84
2022/03/04 06:43:04;;;;;;;59.67;36.38;;;;;;;-1.02;74.07;96635.39;1757005;80;21036;-84
2022/03/04 06:45:30;;;;;;;59.73;34.92;;;;;;;-1.02;74.13;96631.09;1751078;81;20980;-84
2022/03/04 06:47:56;;;;;;;62.98;36.08;;;;;;;-0.98;74.27;96629.99;1748978;81;21003;-84
2022/03/04 06:50:21;;;;;;;64.35;36.10;;;;;;;-0.91;74.35;96628.64;1742439;81;21030;-84
2022/03/04 06:52:47;;;;;;;74.05;39.67;;;;;;;-0.85;74.22;96626.58;1744829;81;21090;-83
2022/03/04 06:55:13;;;;;;;69.00;39.33;;;;;;;-0.82;74.24;96623.35;1743899;81;21018;-84
2022/03/04 06:57:39;;;;;;;75.97;43.60;;;;;;;-0.82;74.28;96626.36;1746066;81;21528;-83
2022/03/04 07:00:07;;;;;;;64.20;39.42;;;;;;;-0.88;74.30;96624.25;1743524;81;21050;-84
2022/03/04 07:02:36;;;;;;;66.60;40.17;;;;;;;-0.89;74.43;96630.27;1742311;81;20959;-84
2022/03/04 07:05:05;;;;;;;64.90;38.17;;;;;;;-0.91;74.36;96640.12;1746741;81;22058;-84
2022/03/04 07:07:30;;;;;;;68.70;39.27;;;;;;;-0.95;74.44;96637.89;1743588;81;20995;-84
2022/03/04 07:09:56;;;;;;;83.72;44.88;;;;;;;-0.95;74.46;96641.72;1741416;81;21441;-84
2022/03/04 07:12:22;;;;;;;85.53;45.70;;;;;;;-0.89;74.78;96640.02;1743175;81;21009;-84
2022/03/04 07:14:48;;;;;;;71.35;41.25;;;;;;;-1.03;74.77;96612.08;1743739;81;20974;-84
2022/03/04 07:17:14;;;;;;;75.30;43.78;;;;;;;-0.80;74.46;96648.78;1743798;81;20966;-83
2022/03/04 07:19:40;;;;;;;70.30;41.05;;;;;;;-0.83;74.47;96654.07;1741039;81;20970;-83
2022/03/04 07:22:06;;;;;;;72.10;39.13;;;;;;;-0.87;74.57;96653.48;1742369;81;20954;-84
2022/03/04 07:24:32;;;;;;;69.62;41.45;;;;;;;-0.84;74.63;96653.26;1744399;81;21013;-84
2022/03/04 07:26:58;;;;;;;65.03;39.18;;;;;;;-0.87;74.38;96652.66;1745934;81;21044;-84
2022/03/04 07:29:25;;;;;;;74.40;41.05;;;;;;;-0.92;74.68;96656.81;1744837;81;21983;-84
2022/03/04 07:31:53;;;;;;;77.55;44.18;;;;;;;-0.88;74.81;96654.86;1733363;81;20981;-84
2022/03/04 07:34:20;;;;;;;73.62;42.25;;;;;;;-0.85;74.74;96659.28;1739890;81;21043;-84
2022/03/04 07:36:46;;;;;;;72.40;40.83;;;;;;;-0.84;74.93;96657.09;1733861;81;20953;-84
2022/03/04 07:39:11;;;;;;;75.87;41.95;;;;;;;-0.81;75.00;96657.36;1733543;81;21368;-84
2022/03/04 07:41:37;;;;;;;71.45;43.78;;;;;;;-0.78;75.01;96655.41;1738857;81;21109;-84
2022/03/04 07:44:04;;;;;;;79.53;46.08;;;;;;;-0.81;74.97;96654.35;1742266;81;21062;-84
2022/03/04 07:46:30;;;;;;;72.22;43.58;;;;;;;-0.80;75.10;96658.99;1741535;80;20947;-84
2022/03/04 07:48:56;;;;;;;77.40;44.45;;;;;;;-0.75;75.16;96659.02;1750542;80;21084;-83
2022/03/04 07:51:22;;;;;;;81.28;45.30;;;;;;;-0.70;75.07;96656.14;1745089;80;20954;-84
2022/03/04 07:53:47;;;;;;;77.30;43.40;;;;;;;-0.66;75.13;96655.00;1752538;80;20979;-84
2022/03/04 07:56:13;;;;;;;90.85;49.95;;;;;;;-0.61;75.17;96658.08;1758102;80;20962;-84
2022/03/04 07:58:39;;;;;;;79.67;44.05;;;;;;;-0.54;75.14;96657.17;1755613;80;21094;-84
2022/03/04 08:01:05;;;;;;;87.15;48.25;;;;;;;-0.50;75.02;96658.12;1750890;80;21039;-84
2022/03/04 08:03:31;;;;;;;87.33;47.05;;;;;;;-0.46;75.04;96662.58;1757208;80;21085;-84
2022/03/04 08:05:57;;;;;;;78.78;45.20;;;;;;;-0.46;75.04;96658.75;1762471;80;20984;-84
2022/03/04 08:08:23;;;;;;;81.55;45.55;;;;;;;-0.72;74.85;96621.81;1758004;80;21016;-83
2022/03/04 08:10:49;;;;;;;89.03;47.05;;;;;;;-0.52;75.11;96664.27;1741535;80;20980;-84
2022/03/04 08:13:14;;;;;;;86.78;47.00;;;;;;;-0.50;75.08;96657.31;1741759;80;21377;-84
2022/03/04 08:15:41;;;;;;;78.45;43.70;;;;;;;-0.52;75.31;96665.08;1751048;80;20935;-85
2022/03/04 08:18:07;;;;;;;71.53;41.37;;;;;;;-0.49;75.23;96669.16;1752406;80;20929;-84
2022/03/04 08:20:33;;;;;;;72.20;41.92;;;;;;;-0.47;75.25;96672.44;1753772;80;20965;-84
2022/03/04 08:22:59;;;;;;;69.92;38.45;;;;;;;-0.45;75.37;96668.85;1754771;80;21048;-84
2022/03/04 08:25:25;;;;;;;69.65;39.65;;;;;;;-0.47;75.19;96670.70;1746379;80;20937;-84
2022/03/04 08:27:52;;;;;;;66.53;37.80;;;;;;;-0.50;75.19;96672.17;1740452;80;21407;-84
2022/03/04 08:30:18;;;;;;;75.67;40.90;;;;;;;-0.47;75.15;96676.27;1747418;80;20981;-84
2022/03/04 08:32:44;;;;;;;68.57;38.73;;;;;;;-0.53;75.14;96674.94;1734487;80;20986;-84
2022/03/04 08:35:10;;;;;;;78.75;43.52;;;;;;;-0.50;75.49;96676.00;1751919;80;21250;-84
2022/03/04 08:37:36;;;;;;;64.62;38.02;;;;;;;-0.43;75.70;96672.58;1757519;80;22016;-84
2022/03/04 08:40:04;;;;;;;65.35;36.35;;;;;;;-0.40;75.73;96678.27;1747724;80;21084;-84
2022/03/04 08:42:30;;;;;;;101.97;61.85;;;;;;;-0.37;75.66;96670.39;1746823;80;21048;-84
2022/03/04 08:44:56;;;;;;;122.98;75.10;;;;;;;-0.34;75.56;96674.47;1749295;80;20974;-84
2022/03/04 08:47:22;;;;;;;96.60;61.65;;;;;;;-0.31;75.64;96680.66;1755974;80;21392;-84
2022/03/04 08:49:47;;;;;;;71.80;44.20;;;;;;;-0.27;75.70;96676.15;1751681;80;20953;-84
2022/03/04 08:52:13;;;;;;;71.70;44.13;;;;;;;-0.25;75.91;96676.85;1752875;80;21020;-84
2022/03/04 08:54:39;;;;;;;68.62;37.98;;;;;;;-0.23;75.77;96674.54;1757272;80;21052;-84
2022/03/04 08:57:05;;;;;;;68.15;39.15;;;;;;;-0.19;75.57;96681.05;1746973;81;20976;-85
2022/03/04 08:59:31;;;;;;;65.45;38.45;;;;;;;-0.14;75.66;96683.30;1752273;81;21010;-84
2022/03/04 09:01:56;;;;;;;68.70;38.65;;;;;;;-0.11;75.73;96672.87;1742755;81;21012;-84
2022/03/04 09:04:23;;;;;;;72.22;41.58;;;;;;;-0.07;75.62;96676.83;1754474;80;21330;-84
2022/03/04 09:06:49;;;;;;;63.28;38.75;;;;;;;-0.33;75.78;96641.63;1751944;80;21007;-84
2022/03/04 09:09:14;;;;;;;62.75;37.40;;;;;;;-0.09;75.73;96685.06;1748422;81;21017;-84
2022/03/04 09:11:41;;;;;;;71.17;38.05;;;;;;;-0.05;75.86;96687.75;1750360;81;21411;-84
2022/03/04 09:14:07;;;;;;;64.97;38.20;;;;;;;-0.01;75.69;96684.86;1752323;80;21008;-84
2022/03/04 09:16:32;;;;;;;67.08;38.88;;;;;;;0.03;75.75;96688.03;1725725;81;20992;-84
2022/03/04 09:18:58;;;;;;;62.88;39.88;;;;;;;0.05;75.63;96695.59;1754579;80;21352;-84
2022/03/04 09:21:24;;;;;;;70.08;39.83;;;;;;;0.04;75.61;96690.12;1750992;80;20974;-84
2022/03/04 09:23:49;;;;;;;68.92;37.95;;;;;;;0.04;75.77;96695.23;1748384;81;21062;-84
2022/03/04 09:26:15;;;;;;;67.20;39.08;;;;;;;0.06;75.65;96694.20;1755798;80;21057;-84
2022/03/04 09:28:41;;;;;;;65.75;39.90;;;;;;;0.08;75.42;96697.92;1756644;81;21008;-85
2022/03/04 09:31:07;;;;;;;69.42;40.05;;;;;;;0.06;75.65;96698.49;1752340;80;21007;-85
2022/03/04 09:33:32;;;;;;;68.57;39.73;;;;;;;0.10;75.56;96697.34;1752484;81;20957;-84
2022/03/04 09:36:00;;;;;;;66.28;38.75;;;;;;;0.11;75.62;96702.34;1753974;81;21265;-85
2022/03/04 09:38:26;;;;;;;64.92;37.15;;;;;;;0.07;75.46;96712.89;1759340;80;20999;-85
2022/03/04 09:40:52;;;;;;;71.72;40.10;;;;;;;0.07;75.58;96711.16;1729717;81;21034;-85
2022/03/04 09:43:18;;;;;;;66.60;38.02;;;;;;;0.08;75.43;96711.51;1751118;81;21010;-84
2022/03/04 09:45:46;;;;;;;63.38;37.63;;;;;;;0.08;75.53;96713.25;1753680;80;20998;-85
2022/03/04 09:48:12;;;;;;;65.60;39.53;;;;;;;0.10;75.68;96712.20;1755576;80;20986;-85
2022/03/04 09:50:38;;;;;;;68.55;38.50;;;;;;;0.15;75.75;96719.08;1759431;80;21006;-84
2022/03/04 09:53:09;;;;;;;68.72;38.05;;;;;;;0.18;75.80;96717.61;1752649;80;20997;-84
2022/03/04 09:55:32;;;;;;;64.15;40.03;;;;;;;0.22;75.85;96709.25;1750795;80;21392;-85
2022/03/04 09:57:57;;;;;;;62.65;38.00;;;;;;;0.22;75.62;96710.06;1748931;81;21082;-85
2022/03/04 10:00:24;;;;;;;67.72;38.73;;;;;;;0.21;75.79;96710.99;1744980;81;21038;-85
2022/03/04 10:02:49;;;;;;;65.08;40.03;;;;;;;0.21;76.09;96708.90;1746296;80;21002;-85
2022/03/04 10:05:15;;;;;;;64.17;39.38;;;;;;;0.26;76.00;96709.37;1746392;81;21032;-84
2022/03/04 10:07:42;;;;;;;68.10;40.85;;;;;;;0.31;75.96;96711.13;1749422;80;20986;-85
2022/03/04 10:10:15;;;;;;;68.37;40.17;;;;;;;0.35;75.82;96710.47;1745428;80;21020;-85
2022/03/04 10:12:52;;;;;;;67.67;39.30;;;;;;;0.38;75.72;96710.24;1750880;81;21604;-84
2022/03/04 10:15:18;;;;;;;72.85;40.40;;;;;;;0.40;75.70;96711.76;1743367;80;21094;-85
2022/03/04 10:18:03;;;;;;;63.05;37.40;;;;;;;0.41;75.78;96715.94;1743072;81;21077;-85
2022/03/04 10:20:39;;;;;;;71.20;39.35;;;;;;;0.42;76.07;96720.12;1740788;81;22133;-84
2022/03/04 10:23:21;;;;;;;66.67;40.17;;;;;;;0.43;75.95;96716.64;1749020;80;20966;-85
2022/03/04 10:25:51;;;;;;;67.53;38.45;;;;;;;0.39;75.52;96713.96;1743113;80;21045;-85
2022/03/04 10:28:17;;;;;;;67.03;39.70;;;;;;;0.40;75.66;96713.50;1740599;80;20939;-85
2022/03/04 10:30:48;;;;;;;68.02;41.70;;;;;;;0.37;75.61;96714.54;1749216;80;20990;-84
2022/03/04 10:33:17;;;;;;;66.57;39.15;;;;;;;0.42;75.66;96716.30;1733106;81;21001;-84
2022/03/04 10:35:43;;;;;;;70.90;43.65;;;;;;;0.49;75.69;96717.96;1739290;82;20966;-85
2022/03/04 10:38:24;;;;;;;69.30;38.70;;;;;;;0.51;75.72;96717.38;1729910;81;21328;-85
2022/03/04 10:40:50;;;;;;;71.05;40.75;;;;;;;0.49;75.67;96710.29;1731773;82;21017;-85
2022/03/04 10:43:23;;;;;;;61.08;37.17;;;;;;;0.45;75.40;96712.23;1733282;81;21104;-85
2022/03/04 10:45:45;;;;;;;65.05;39.85;;;;;;;0.43;75.67;96717.92;1734005;82;21057;-85
2022/03/04 10:48:17;;;;;;;73.67;41.20;;;;;;;0.46;75.87;96707.47;1747095;81;21467;-85
2022/03/04 10:50:49;;;;;;;74.85;43.68;;;;;;;0.47;75.87;96712.93;1743831;82;20949;-85
2022/03/04 10:53:21;;;;;;;68.35;39.42;;;;;;;0.48;75.63;96717.58;1744110;82;21081;-85
2022/03/04 10:56:05;;;;;;;77.35;42.30;;;;;;;0.49;75.75;96708.55;1744362;82;21064;-85
2022/03/04 10:58:38;;;;;;;59.90;36.53;;;;;;;0.45;75.67;96709.67;1744271;82;20983;-85
2022/03/04 11:01:10;;;;;;;68.72;41.77;;;;;;;0.44;75.98;96709.32;1743698;82;20981;-85
2022/03/04 11:03:37;;;;;;;67.20;39.40;;;;;;;0.44;76.03;96713.16;1744335;82;21002;-84
2022/03/04 11:06:11;;;;;;;72.60;43.78;;;;;;;0.47;76.17;96714.67;1727106;82;21347;-85
2022/03/04 11:08:37;;;;;;;71.80;42.83;;;;;;;0.48;75.86;96708.63;1744051;82;21064;-85
2022/03/04 11:11:03;;;;;;;71.00;42.38;;;;;;;0.49;76.22;96711.11;1744261;82;21026;-85
2022/03/04 11:13:35;;;;;;;69.17;41.28;;;;;;;0.58;76.21;96708.33;1744449;82;21114;-85
2022/03/04 11:16:03;;;;;;;55.92;33.83;;;;;;;0.63;76.16;96710.07;1744584;82;21020;-85